Time;durP1;ratioP1;P1;durP2;ratioP2;P2;SDS_P1;SDS_P2;PMS_P1;PMS_P2;Temp;Humidity;BMP_temperature;BMP_pressure;BME280_temperature;BME280_humidity;BME280_pressure;Samples;Min_cycle;Max_cycle;Signal;HPM_P1;HPM_P2
2022/07/09 00:00:05;;;;;;;5.45;2.63;;;23.70;59.90;;;;;;5005912;28;20038;-70
2022/07/09 00:02:31;;;;;;;7.03;3.00;;;23.70;59.90;;;;;;5006737;28;20445;-70
2022/07/09 00:04:56;;;;;;;7.47;3.13;;;23.70;59.90;;;;;;5002089;28;20033;-70
2022/07/09 00:07:22;;;;;;;7.75;3.42;;;23.70;59.90;;;;;;5005283;28;20026;-70
2022/07/09 00:09:47;;;;;;;7.38;3.25;;;23.60;59.90;;;;;;5003170;28;20034;-69
2022/07/09 00:12:13;;;;;;;6.22;3.22;;;23.70;60.00;;;;;;5001690;28;20066;-71
2022/07/09 00:14:39;;;;;;;7.43;2.72;;;23.70;60.00;;;;;;5003378;28;20036;-70
2022/07/09 00:17:04;;;;;;;6.57;3.10;;;23.60;59.90;;;;;;5004828;28;20041;-70
2022/07/09 00:19:30;;;;;;;5.90;3.30;;;23.70;60.00;;;;;;5006772;28;20118;-70
2022/07/09 00:21:57;;;;;;;7.13;2.97;;;23.60;59.90;;;;;;5003452;28;20049;-70
2022/07/09 00:24:23;;;;;;;6.43;2.88;;;23.70;60.00;;;;;;5005085;28;20025;-70
2022/07/09 00:26:48;;;;;;;6.30;3.15;;;23.60;60.00;;;;;;5005820;28;20139;-70
2022/07/09 00:29:14;;;;;;;7.15;3.30;;;23.60;59.90;;;;;;5006473;28;20030;-70
2022/07/09 00:31:40;;;;;;;6.00;2.95;;;23.60;60.00;;;;;;5005501;28;20453;-70
2022/07/09 00:34:05;;;;;;;5.20;2.92;;;23.60;60.00;;;;;;5003532;28;20038;-70
2022/07/09 00:36:31;;;;;;;5.53;3.15;;;23.60;60.00;;;;;;5004096;28;20034;-70
2022/07/09 00:38:56;;;;;;;6.60;2.95;;;23.60;60.00;;;;;;5003687;28;20036;-70
2022/07/09 00:41:22;;;;;;;6.20;3.10;;;23.60;60.10;;;;;;5004577;28;20034;-70
2022/07/09 00:43:48;;;;;;;6.38;3.22;;;23.60;60.10;;;;;;5004353;28;20117;-69
2022/07/09 00:46:15;;;;;;;6.88;3.30;;;23.60;60.10;;;;;;5003986;28;20025;-70
2022/07/09 00:48:40;;;;;;;7.18;3.10;;;23.60;60.10;;;;;;5004188;28;20022;-70
2022/07/09 00:51:06;;;;;;;6.15;3.30;;;23.60;60.20;;;;;;5006615;28;20092;-70
2022/07/09 00:53:32;;;;;;;4.72;2.70;;;23.60;60.20;;;;;;5007324;28;20026;-70
2022/07/09 00:55:57;;;;;;;6.57;3.33;;;23.60;60.20;;;;;;5009105;28;20109;-70
2022/07/09 00:58:23;;;;;;;5.70;2.90;;;23.60;60.20;;;;;;5005684;28;20023;-70
2022/07/09 01:00:49;;;;;;;6.78;2.97;;;23.60;60.20;;;;;;5007812;28;20046;-70
2022/07/09 01:03:15;;;;;;;5.55;2.80;;;23.60;60.30;;;;;;5007551;28;20030;-70
2022/07/09 01:05:40;;;;;;;5.07;2.80;;;23.50;60.20;;;;;;5008141;28;20050;-70
2022/07/09 01:08:07;;;;;;;5.25;2.92;;;23.50;60.20;;;;;;5008670;28;20026;-70
2022/07/09 01:10:34;;;;;;;5.78;2.88;;;23.50;60.20;;;;;;5008059;28;20576;-70
2022/07/09 01:12:59;;;;;;;5.72;2.88;;;23.50;60.40;;;;;;5006502;28;20034;-70
2022/07/09 01:15:25;;;;;;;6.28;2.85;;;23.50;60.40;;;;;;5008510;28;20079;-70
2022/07/09 01:17:52;;;;;;;6.63;2.92;;;23.50;60.30;;;;;;5008279;28;20091;-70
2022/07/09 01:20:30;;;;;;;4.68;2.80;;;23.50;60.30;;;;;;5009521;28;20617;-70
2022/07/09 01:22:57;;;;;;;6.72;2.80;;;23.50;60.40;;;;;;5023476;28;20105;-70
2022/07/09 01:25:36;;;;;;;5.32;2.67;;;23.50;60.40;;;;;;5006015;28;20040;-70
2022/07/09 01:28:05;;;;;;;4.97;2.70;;;23.50;60.40;;;;;;5005149;28;20042;-70
2022/07/09 01:30:31;;;;;;;4.50;2.63;;;23.50;60.40;;;;;;5007725;28;20030;-69
2022/07/09 01:32:57;;;;;;;7.38;2.70;;;23.50;60.40;;;;;;5004102;28;20025;-70
2022/07/09 01:35:23;;;;;;;4.88;2.70;;;23.50;60.40;;;;;;5007012;28;20072;-70
2022/07/09 01:37:48;;;;;;;6.07;2.80;;;23.50;60.40;;;;;;5007867;28;20168;-69
2022/07/09 01:40:14;;;;;;;4.43;2.65;;;23.50;60.50;;;;;;5008234;28;20379;-70
2022/07/09 01:42:40;;;;;;;5.90;3.00;;;23.50;61.40;;;;;;5008085;28;20087;-70
2022/07/09 01:45:06;;;;;;;5.38;2.85;;;23.50;60.40;;;;;;5006003;28;20172;-70
2022/07/09 01:47:32;;;;;;;5.93;2.95;;;23.40;60.40;;;;;;5004981;28;20801;-70
2022/07/09 01:49:57;;;;;;;4.93;2.85;;;23.40;60.40;;;;;;5023156;28;20064;-70
2022/07/09 01:52:23;;;;;;;4.43;2.58;;;23.40;60.40;;;;;;5005171;28;20116;-70
2022/07/09 01:54:49;;;;;;;6.28;2.80;;;23.40;60.40;;;;;;5008059;28;20486;-70
2022/07/09 01:57:15;;;;;;;5.28;2.80;;;23.40;60.50;;;;;;5008337;28;20053;-70
2022/07/09 01:59:40;;;;;;;4.75;2.70;;;23.40;60.50;;;;;;5007157;28;20033;-70
2022/07/09 02:02:06;;;;;;;6.07;2.88;;;23.40;60.50;;;;;;5005118;28;20046;-70
2022/07/09 02:04:32;;;;;;;5.25;2.78;;;23.40;60.50;;;;;;5006206;28;20026;-69
2022/07/09 02:06:57;;;;;;;6.50;2.60;;;23.40;60.50;;;;;;5008023;28;20041;-70
2022/07/09 02:09:23;;;;;;;4.75;2.70;;;23.40;60.50;;;;;;5007384;28;20495;-70
2022/07/09 02:11:49;;;;;;;5.30;2.85;;;23.40;60.50;;;;;;5007608;28;20076;-70
2022/07/09 02:14:15;;;;;;;4.93;2.63;;;23.40;60.50;;;;;;5007158;28;20488;-70
2022/07/09 02:16:40;;;;;;;5.20;2.70;;;23.40;60.50;;;;;;5007334;28;20033;-70
2022/07/09 02:19:06;;;;;;;5.40;3.05;;;23.30;60.50;;;;;;5003241;28;20045;-70
2022/07/09 02:21:32;;;;;;;6.65;3.10;;;23.30;60.50;;;;;;5006457;28;20050;-70
2022/07/09 02:23:58;;;;;;;4.57;2.40;;;23.30;60.60;;;;;;5006323;28;20054;-70
2022/07/09 02:26:25;;;;;;;5.32;2.60;;;23.30;60.60;;;;;;5008333;28;20053;-70
2022/07/09 02:28:51;;;;;;;3.92;2.60;;;23.30;60.50;;;;;;5005687;28;20037;-70
2022/07/09 02:31:17;;;;;;;5.35;2.72;;;23.30;60.60;;;;;;5007462;28;20045;-70
2022/07/09 02:33:43;;;;;;;5.40;2.90;;;23.30;60.60;;;;;;5004961;28;20031;-70
2022/07/09 02:36:09;;;;;;;4.90;2.67;;;23.30;60.70;;;;;;5006614;28;20037;-70
2022/07/09 02:38:34;;;;;;;4.53;2.70;;;23.30;60.60;;;;;;5006670;28;20033;-70
2022/07/09 02:41:01;;;;;;;4.60;2.60;;;23.30;60.70;;;;;;5007513;28;20084;-70
2022/07/09 02:43:27;;;;;;;5.35;2.90;;;23.30;60.70;;;;;;5004977;28;20379;-70
2022/07/09 02:45:55;;;;;;;6.63;2.63;;;23.30;60.70;;;;;;5008008;28;20029;-69
2022/07/09 02:48:21;;;;;;;5.15;2.83;;;23.30;60.70;;;;;;5007006;28;20044;-70
2022/07/09 02:50:47;;;;;;;5.40;3.00;;;23.30;60.80;;;;;;5003206;28;20093;-70
2022/07/09 02:53:13;;;;;;;5.57;2.80;;;23.20;60.70;;;;;;5003792;28;20930;-70
2022/07/09 02:55:38;;;;;;;4.40;2.50;;;23.20;60.70;;;;;;5007354;28;20060;-70
2022/07/09 02:58:04;;;;;;;4.75;2.55;;;23.20;60.70;;;;;;5007180;28;20053;-70
2022/07/09 03:00:30;;;;;;;5.60;2.67;;;23.20;60.70;;;;;;5004183;28;20061;-69
2022/07/09 03:02:55;;;;;;;5.40;2.70;;;23.20;60.70;;;;;;5006162;28;20029;-70
2022/07/09 03:05:21;;;;;;;5.15;2.75;;;23.20;60.70;;;;;;5008119;28;20018;-70
2022/07/09 03:07:47;;;;;;;5.85;2.80;;;23.20;60.80;;;;;;5002382;28;20033;-70
2022/07/09 03:10:12;;;;;;;5.32;2.90;;;23.20;60.80;;;;;;5006332;28;20037;-70
2022/07/09 03:12:40;;;;;;;4.70;2.50;;;23.20;60.80;;;;;;5003610;28;20037;-70
2022/07/09 03:15:06;;;;;;;5.15;2.50;;;23.20;60.80;;;;;;5007232;28;20034;-70
2022/07/09 03:17:32;;;;;;;5.18;2.70;;;23.20;60.90;;;;;;5006372;28;20053;-70
2022/07/09 03:19:58;;;;;;;5.13;2.67;;;23.20;60.80;;;;;;5005628;28;20046;-70
2022/07/09 03:22:23;;;;;;;6.03;2.70;;;23.20;60.90;;;;;;5006186;28;20017;-70
2022/07/09 03:24:49;;;;;;;4.88;2.60;;;23.20;60.90;;;;;;5004454;28;20105;-70
2022/07/09 03:27:14;;;;;;;5.90;2.70;;;23.20;60.90;;;;;;5006614;28;20025;-70
2022/07/09 03:29:40;;;;;;;4.82;2.40;;;23.10;60.90;;;;;;5006115;28;20022;-70
2022/07/09 03:32:06;;;;;;;3.92;2.50;;;23.10;60.90;;;;;;5004194;28;20041;-70
2022/07/09 03:34:32;;;;;;;4.20;2.65;;;23.10;60.90;;;;;;5005709;28;20032;-70
2022/07/09 03:36:58;;;;;;;4.05;2.53;;;23.10;60.90;;;;;;5006027;28;20121;-70
2022/07/09 03:39:24;;;;;;;5.28;2.65;;;23.10;60.90;;;;;;5004880;28;20065;-70
2022/07/09 03:41:50;;;;;;;4.07;2.40;;;23.10;60.90;;;;;;5005734;28;20018;-69
2022/07/09 03:44:16;;;;;;;5.13;2.40;;;23.10;60.90;;;;;;5005692;28;20053;-70
2022/07/09 03:46:42;;;;;;;5.82;2.75;;;23.10;60.90;;;;;;5004173;28;20026;-70
2022/07/09 03:49:08;;;;;;;4.35;2.47;;;23.10;60.90;;;;;;5005371;28;20541;-70
2022/07/09 03:51:33;;;;;;;5.07;2.60;;;23.10;60.90;;;;;;5004919;28;20029;-70
2022/07/09 03:53:59;;;;;;;4.75;2.63;;;23.10;60.90;;;;;;5005970;28;20036;-70
2022/07/09 03:56:25;;;;;;;4.95;2.30;;;23.10;60.90;;;;;;5005697;28;20025;-70
2022/07/09 03:58:51;;;;;;;4.25;2.15;;;23.10;61.00;;;;;;5005409;28;20057;-70
2022/07/09 04:01:16;;;;;;;4.82;2.67;;;23.10;61.00;;;;;;5002588;28;20069;-69
2022/07/09 04:03:42;;;;;;;5.50;2.60;;;23.10;61.00;;;;;;5004109;28;20025;-70
2022/07/09 04:06:08;;;;;;;4.25;2.45;;;23.10;61.00;;;;;;5004502;28;20042;-70
2022/07/09 04:08:33;;;;;;;3.95;2.50;;;23.10;61.00;;;;;;5004264;28;20029;-70
2022/07/09 04:10:59;;;;;;;4.57;2.38;;;23.00;60.90;;;;;;5005586;28;20072;-70
2022/07/09 04:13:25;;;;;;;3.83;2.20;;;23.10;61.00;;;;;;5006186;28;20026;-70
2022/07/09 04:15:50;;;;;;;4.10;2.40;;;23.00;61.00;;;;;;5005618;28;20060;-69
2022/07/09 04:18:16;;;;;;;4.43;2.42;;;23.00;61.00;;;;;;5006021;28;20046;-69
2022/07/09 04:20:42;;;;;;;3.78;2.15;;;23.00;61.00;;;;;;5005811;28;20514;-69
2022/07/09 04:23:08;;;;;;;3.67;2.25;;;23.00;61.00;;;;;;5004958;28;20545;-69
2022/07/09 04:25:33;;;;;;;4.60;2.50;;;23.00;61.00;;;;;;5005633;28;20028;-70
2022/07/09 04:27:59;;;;;;;3.97;2.05;;;23.00;61.10;;;;;;5010003;28;20462;-70
2022/07/09 04:30:26;;;;;;;5.20;2.78;;;23.00;61.10;;;;;;5006579;28;20511;-69
2022/07/09 04:32:52;;;;;;;4.72;2.40;;;23.00;61.00;;;;;;5008316;28;20064;-69
2022/07/09 04:35:18;;;;;;;6.35;2.50;;;23.00;61.10;;;;;;5008514;28;20034;-70
2022/07/09 04:37:43;;;;;;;4.05;2.33;;;23.00;61.10;;;;;;5010473;28;20033;-69
2022/07/09 04:40:09;;;;;;;4.82;2.45;;;23.00;61.10;;;;;;5009729;28;20034;-69
2022/07/09 04:42:35;;;;;;;3.15;2.22;;;23.00;61.10;;;;;;5008147;28;20041;-69
2022/07/09 04:45:01;;;;;;;4.03;2.38;;;23.00;61.10;;;;;;5008876;28;20422;-70
2022/07/09 04:47:26;;;;;;;4.07;2.30;;;22.90;61.10;;;;;;5005538;28;20030;-70
2022/07/09 04:49:52;;;;;;;4.90;2.47;;;22.90;61.10;;;;;;5008717;28;20508;-70
2022/07/09 04:52:19;;;;;;;4.78;2.50;;;22.90;61.10;;;;;;5007925;28;20697;-70
2022/07/09 04:54:45;;;;;;;3.63;2.20;;;23.00;61.30;;;;;;5007790;28;20549;-69
2022/07/09 04:57:12;;;;;;;4.03;2.30;;;22.90;61.10;;;;;;5005324;28;20509;-69
2022/07/09 04:59:38;;;;;;;3.70;2.30;;;22.90;61.10;;;;;;5005210;28;20022;-70
2022/07/09 05:02:04;;;;;;;4.20;2.42;;;22.90;61.20;;;;;;5008069;28;20117;-70
2022/07/09 05:04:31;;;;;;;4.25;2.40;;;22.90;61.20;;;;;;5007133;28;20030;-70
2022/07/09 05:06:57;;;;;;;3.83;2.35;;;22.90;61.20;;;;;;5004587;28;20045;-70
2022/07/09 05:09:23;;;;;;;5.05;2.50;;;22.90;61.20;;;;;;5006549;28;20093;-70
2022/07/09 05:11:48;;;;;;;3.92;2.25;;;22.90;61.20;;;;;;5007551;28;20101;-69
2022/07/09 05:14:14;;;;;;;3.45;2.20;;;22.90;61.20;;;;;;5008808;28;20109;-69
2022/07/09 05:16:44;;;;;;;3.70;2.22;;;22.90;61.20;;;;;;5007546;28;20025;-70
2022/07/09 05:19:11;;;;;;;3.85;2.10;;;22.90;61.20;;;;;;5008230;28;20050;-69
2022/07/09 05:21:41;;;;;;;3.80;2.20;;;22.90;61.30;;;;;;5005457;28;20042;-70
2022/07/09 05:24:07;;;;;;;4.03;2.40;;;22.90;61.30;;;;;;5007273;28;20031;-70
2022/07/09 05:26:33;;;;;;;4.25;2.42;;;22.90;61.30;;;;;;5007469;28;20056;-69
2022/07/09 05:28:59;;;;;;;6.05;2.03;;;22.90;61.30;;;;;;5006201;28;20065;-69
2022/07/09 05:31:24;;;;;;;3.25;2.05;;;22.90;61.40;;;;;;5007750;28;21129;-69
2022/07/09 05:33:51;;;;;;;3.40;2.00;;;22.80;61.30;;;;;;5001142;28;20076;-70
2022/07/09 05:36:17;;;;;;;3.03;1.90;;;22.80;61.30;;;;;;5005543;28;20095;-70
2022/07/09 05:38:43;;;;;;;3.97;2.42;;;22.80;61.30;;;;;;5006844;28;21217;-70
2022/07/09 05:41:10;;;;;;;2.90;1.90;;;22.90;61.40;;;;;;5005779;28;20036;-69
2022/07/09 05:43:36;;;;;;;3.40;2.20;;;22.80;61.40;;;;;;5005383;28;20030;-69
2022/07/09 05:46:02;;;;;;;3.22;2.13;;;22.80;61.40;;;;;;5005610;28;20594;-69
2022/07/09 05:48:27;;;;;;;3.00;2.05;;;22.80;61.40;;;;;;5005858;28;20153;-70
2022/07/09 05:50:54;;;;;;;3.78;2.15;;;22.80;61.40;;;;;;5007122;28;20025;-70
2022/07/09 05:53:20;;;;;;;3.20;2.13;;;22.80;61.40;;;;;;5008067;28;20030;-69
2022/07/09 05:55:46;;;;;;;4.25;2.20;;;22.80;61.40;;;;;;5003873;28;20108;-70
2022/07/09 05:58:12;;;;;;;3.42;2.10;;;22.80;61.50;;;;;;5005715;28;20423;-70
2022/07/09 06:00:37;;;;;;;3.35;2.30;;;22.80;61.40;;;;;;5005419;28;20172;-70
2022/07/09 06:03:03;;;;;;;3.42;2.22;;;22.80;61.40;;;;;;5003363;28;20121;-70
2022/07/09 06:05:29;;;;;;;3.17;2.08;;;22.80;61.50;;;;;;5005764;28;20064;-70
2022/07/09 06:07:55;;;;;;;3.40;2.13;;;22.80;61.50;;;;;;5006829;28;20096;-69
2022/07/09 06:10:21;;;;;;;3.20;2.15;;;22.80;61.50;;;;;;5006551;28;20027;-70
2022/07/09 06:12:47;;;;;;;3.83;2.45;;;22.80;61.50;;;;;;5003391;28;20022;-69
2022/07/09 06:15:12;;;;;;;3.70;2.10;;;22.80;61.50;;;;;;5003543;28;20033;-69
2022/07/09 06:17:38;;;;;;;4.38;2.22;;;22.80;61.50;;;;;;5003937;28;20064;-70
2022/07/09 06:20:05;;;;;;;3.17;1.83;;;22.80;61.60;;;;;;5006323;28;20414;-71
2022/07/09 06:22:32;;;;;;;3.50;1.92;;;22.80;61.50;;;;;;5007475;28;20454;-69
2022/07/09 06:24:58;;;;;;;3.35;2.13;;;22.80;61.60;;;;;;5004752;28;20030;-70
2022/07/09 06:27:24;;;;;;;4.45;2.30;;;22.80;61.60;;;;;;5002434;28;20022;-70
2022/07/09 06:29:50;;;;;;;3.45;2.00;;;22.70;61.50;;;;;;5006186;28;20045;-69
2022/07/09 06:32:15;;;;;;;3.42;2.10;;;22.80;61.60;;;;;;5005047;28;20395;-70
2022/07/09 06:34:42;;;;;;;3.97;2.22;;;22.80;61.60;;;;;;5006415;28;20101;-69
2022/07/09 06:37:08;;;;;;;3.08;2.10;;;22.80;61.60;;;;;;5000646;28;20093;-68
2022/07/09 06:39:44;;;;;;;2.63;1.90;;;22.70;61.50;;;;;;5006857;28;20034;-69
2022/07/09 06:42:10;;;;;;;2.45;1.80;;;22.80;61.60;;;;;;5006072;28;20190;-70
2022/07/09 06:44:35;;;;;;;3.42;2.08;;;22.70;61.60;;;;;;5005049;28;20430;-69
2022/07/09 06:47:01;;;;;;;3.05;2.15;;;22.70;61.60;;;;;;5001531;28;20046;-69
2022/07/09 06:49:27;;;;;;;3.97;1.98;;;22.70;61.50;;;;;;5004223;28;20021;-69
2022/07/09 06:51:53;;;;;;;3.72;1.98;;;22.70;61.50;;;;;;5006830;28;20044;-69
2022/07/09 06:54:18;;;;;;;4.13;2.30;;;22.70;61.60;;;;;;5004112;28;20721;-70
2022/07/09 06:56:44;;;;;;;2.90;1.90;;;22.70;61.60;;;;;;5002832;28;20033;-69
2022/07/09 06:59:10;;;;;;;17.80;3.55;;;22.80;61.70;;;;;;5004869;28;20014;-69
2022/07/09 07:01:35;;;;;;;12.00;3.50;;;22.80;62.90;;;;;;5004126;28;20037;-70
2022/07/09 07:04:01;;;;;;;10.02;3.58;;;22.70;62.90;;;;;;5003412;28;20022;-69
2022/07/09 07:06:27;;;;;;;9.43;3.58;;;22.70;63.30;;;;;;5002408;28;20036;-70
2022/07/09 07:08:52;;;;;;;9.50;3.50;;;22.70;63.60;;;;;;5002291;28;20108;-69
2022/07/09 07:11:18;;;;;;;9.00;3.40;;;22.70;63.50;;;;;;5004553;28;20026;-69
2022/07/09 07:13:53;;;;;;;6.97;3.20;;;22.60;64.40;;;;;;5004319;28;20590;-70
2022/07/09 07:16:18;;;;;;;7.75;3.53;;;22.60;64.20;;;;;;5004130;28;20022;-70
2022/07/09 07:18:44;;;;;;;9.23;3.55;;;22.60;64.00;;;;;;5003786;28;20038;-69
2022/07/09 07:21:10;;;;;;;7.75;3.03;;;22.60;64.50;;;;;;5001283;28;20034;-69
2022/07/09 07:23:35;;;;;;;4.82;2.40;;;22.60;63.80;;;;;;5005153;28;20049;-70
2022/07/09 07:26:01;;;;;;;10.75;2.88;;;22.70;63.60;;;;;;5001741;28;20031;-70
2022/07/09 07:28:27;;;;;;;6.85;2.47;;;22.70;63.40;;;;;;5003091;28;20942;-71
2022/07/09 07:30:54;;;;;;;7.03;3.08;;;22.70;63.20;;;;;;5004451;28;20025;-69
2022/07/09 07:33:20;;;;;;;5.05;2.42;;;22.70;63.00;;;;;;5004419;28;20030;-70
2022/07/09 07:35:45;;;;;;;4.93;2.35;;;22.80;63.00;;;;;;5005393;28;20513;-70
2022/07/09 07:38:11;;;;;;;6.88;2.60;;;22.80;62.90;;;;;;5004342;28;20034;-69
2022/07/09 07:40:36;;;;;;;7.55;2.47;;;22.80;62.90;;;;;;5006579;28;20041;-70
2022/07/09 07:43:03;;;;;;;7.15;2.60;;;22.80;62.80;;;;;;5005225;28;20040;-70
2022/07/09 07:45:28;;;;;;;6.05;2.60;;;22.80;62.80;;;;;;5003792;28;20030;-70
2022/07/09 07:47:54;;;;;;;6.55;2.42;;;22.80;62.70;;;;;;5002772;28;20507;-70
2022/07/09 07:50:21;;;;;;;10.30;3.03;;;22.80;62.70;;;;;;5004670;28;20027;-72
2022/07/09 07:52:46;;;;;;;6.72;3.00;;;22.80;62.60;;;;;;5005205;28;20033;-70
2022/07/09 07:55:12;;;;;;;9.57;3.00;;;22.80;62.60;;;;;;5006434;28;20391;-69
2022/07/09 07:57:38;;;;;;;8.32;3.10;;;22.90;62.70;;;;;;5005547;28;20026;-70
2022/07/09 08:00:04;;;;;;;7.53;2.97;;;22.90;62.70;;;;;;5004854;28;20108;-70
2022/07/09 08:02:30;;;;;;;9.68;3.03;;;22.90;62.60;;;;;;5005436;28;20034;-69
2022/07/09 08:04:56;;;;;;;7.65;2.97;;;22.90;62.60;;;;;;5003981;28;20025;-70
2022/07/09 08:07:22;;;;;;;9.60;3.10;;;22.90;62.60;;;;;;5005133;28;20029;-70
2022/07/09 08:09:47;;;;;;;9.85;3.05;;;22.90;62.40;;;;;;5003687;28;20029;-70
2022/07/09 08:12:13;;;;;;;9.45;2.97;;;22.90;62.40;;;;;;5001797;28;20034;-71
2022/07/09 08:14:39;;;;;;;7.53;3.25;;;22.90;62.30;;;;;;5004915;28;20033;-71
2022/07/09 08:17:05;;;;;;;8.55;3.20;;;22.90;64.40;;;;;;5004845;28;20029;-67
2022/07/09 08:19:30;;;;;;;8.18;3.72;;;22.90;63.30;;;;;;5002650;28;20033;-70
2022/07/09 08:21:56;;;;;;;7.95;3.03;;;22.90;64.40;;;;;;5005150;28;20663;-70
2022/07/09 08:24:22;;;;;;;9.05;3.35;;;22.90;64.50;;;;;;4999924;28;20069;-71
2022/07/09 08:26:48;;;;;;;7.75;3.58;;;22.90;64.60;;;;;;5003186;28;20038;-71
2022/07/09 08:29:13;;;;;;;8.48;3.30;;;22.90;64.50;;;;;;5005015;28;20037;-70
2022/07/09 08:31:39;;;;;;;8.13;4.22;;;22.90;65.00;;;;;;5005099;28;20029;-71
2022/07/09 08:34:05;;;;;;;10.20;3.88;;;22.90;64.80;;;;;;5004517;28;20022;-71
2022/07/09 08:36:30;;;;;;;10.35;3.80;;;22.90;64.80;;;;;;5003287;28;20034;-71
2022/07/09 08:38:56;;;;;;;7.70;3.20;;;22.90;64.70;;;;;;5005521;28;20522;-71
2022/07/09 08:41:23;;;;;;;7.30;3.10;;;22.90;64.80;;;;;;5004284;28;20133;-71
2022/07/09 08:43:50;;;;;;;7.90;3.30;;;22.90;64.40;;;;;;4999816;28;20022;-69
2022/07/09 08:46:16;;;;;;;7.28;3.17;;;23.00;64.60;;;;;;5003686;28;20173;-72
2022/07/09 08:48:41;;;;;;;7.88;2.80;;;23.00;64.20;;;;;;5002270;28;20102;-72
2022/07/09 08:51:07;;;;;;;7.18;2.90;;;23.00;63.90;;;;;;4987947;28;20038;-70
2022/07/09 08:53:33;;;;;;;6.47;2.90;;;23.10;63.90;;;;;;5003299;28;20022;-72
2022/07/09 08:55:58;;;;;;;8.98;2.90;;;23.10;63.80;;;;;;5003256;28;20030;-72
2022/07/09 08:58:24;;;;;;;11.43;2.80;;;23.10;63.60;;;;;;5004409;28;20034;-72
2022/07/09 09:00:52;;;;;;;8.73;2.72;;;23.10;63.60;;;;;;5001319;28;22709;-72
2022/07/09 09:03:18;;;;;;;5.85;2.67;;;23.20;63.60;;;;;;5003969;28;20032;-72
2022/07/09 09:05:44;;;;;;;7.03;2.65;;;23.20;63.50;;;;;;5003029;28;20038;-72
2022/07/09 09:08:22;;;;;;;10.35;2.83;;;23.20;63.30;;;;;;5003346;28;20021;-72
2022/07/09 09:10:47;;;;;;;7.15;2.80;;;23.20;63.40;;;;;;5001273;28;20141;-72
2022/07/09 09:13:16;;;;;;;7.85;2.72;;;23.30;63.20;;;;;;5007316;28;20145;-72
2022/07/09 09:15:43;;;;;;;6.38;2.47;;;23.30;63.20;;;;;;5007170;28;20502;-72
2022/07/09 09:18:09;;;;;;;5.55;2.53;;;23.30;63.20;;;;;;5009245;28;20119;-73
2022/07/09 09:20:34;;;;;;;5.57;2.50;;;23.30;63.20;;;;;;5004244;28;20578;-72
2022/07/09 09:23:02;;;;;;;6.15;2.60;;;23.30;63.20;;;;;;5008647;28;20041;-72
2022/07/09 09:25:29;;;;;;;7.88;2.97;;;23.30;63.20;;;;;;5008078;28;20403;-72
2022/07/09 09:27:56;;;;;;;7.35;2.83;;;23.40;63.20;;;;;;5006671;28;20040;-72
2022/07/09 09:30:22;;;;;;;9.10;2.80;;;23.40;63.10;;;;;;5006501;28;20057;-72
2022/07/09 09:33:00;;;;;;;6.32;2.72;;;23.40;63.10;;;;;;5006514;28;20045;-72
2022/07/09 09:35:28;;;;;;;5.63;2.40;;;23.40;62.90;;;;;;5005067;28;20042;-72
2022/07/09 09:37:54;;;;;;;7.00;2.50;;;23.40;62.90;;;;;;5008853;28;20017;-72
2022/07/09 09:40:20;;;;;;;5.50;2.42;;;23.40;62.90;;;;;;5006241;28;20045;-72
2022/07/09 09:42:46;;;;;;;5.03;2.40;;;23.50;62.90;;;;;;5005583;28;20060;-72
2022/07/09 09:45:14;;;;;;;7.25;2.45;;;23.50;62.90;;;;;;5008493;28;20037;-72
2022/07/09 09:47:48;;;;;;;6.28;2.58;;;23.50;62.80;;;;;;5008985;28;20029;-72
2022/07/09 09:50:21;;;;;;;6.47;2.78;;;23.50;62.80;;;;;;5021118;28;20574;-72
2022/07/09 09:52:48;;;;;;;5.80;2.60;;;23.60;62.70;;;;;;5006142;28;20026;-72
2022/07/09 09:55:14;;;;;;;6.15;2.50;;;23.50;62.70;;;;;;5008241;28;20490;-72
2022/07/09 09:57:40;;;;;;;4.68;2.45;;;23.60;62.70;;;;;;5005691;28;20022;-72
2022/07/09 10:00:06;;;;;;;7.18;2.78;;;23.60;62.70;;;;;;5004676;28;20030;-72
2022/07/09 10:02:32;;;;;;;5.53;2.40;;;23.60;62.60;;;;;;5009068;28;20037;-72
2022/07/09 10:04:58;;;;;;;6.72;2.47;;;23.60;62.60;;;;;;5001661;28;20042;-72
2022/07/09 10:07:24;;;;;;;6.43;2.80;;;23.60;62.40;;;;;;5003094;28;20080;-72
2022/07/09 10:09:53;;;;;;;6.43;2.60;;;23.60;62.60;;;;;;5005120;28;20025;-72
2022/07/09 10:12:29;;;;;;;6.07;2.85;;;23.60;62.30;;;;;;5008265;28;20030;-72
2022/07/09 10:14:55;;;;;;;6.88;2.85;;;23.60;62.60;;;;;;5007851;28;20790;-72
2022/07/09 10:17:22;;;;;;;5.93;2.63;;;23.60;62.70;;;;;;5006659;28;20030;-73
2022/07/09 10:19:55;;;;;;;9.65;3.30;;;23.60;62.70;;;;;;5006868;28;20018;-73
2022/07/09 10:22:35;;;;;;;9.00;3.72;;;23.60;62.80;;;;;;5020023;28;20076;-72
2022/07/09 10:25:00;;;;;;;10.15;3.60;;;23.50;63.20;;;;;;5005320;28;20563;-72
2022/07/09 10:27:26;;;;;;;8.50;3.17;;;23.50;62.90;;;;;;5005264;28;20042;-73
2022/07/09 10:29:59;;;;;;;11.93;3.42;;;23.50;62.80;;;;;;5008013;28;20160;-73
2022/07/09 10:32:31;;;;;;;7.18;3.50;;;23.50;62.90;;;;;;5007341;28;20084;-73
2022/07/09 10:35:01;;;;;;;8.13;3.35;;;23.60;63.00;;;;;;5007602;28;20113;-73
2022/07/09 10:37:43;;;;;;;9.73;3.80;;;23.60;62.90;;;;;;5006374;28;20069;-73
2022/07/09 10:40:13;;;;;;;12.38;3.55;;;23.60;63.00;;;;;;5003978;28;20037;-73
2022/07/09 10:42:39;;;;;;;10.45;3.85;;;23.60;62.90;;;;;;5003792;28;20073;-73
2022/07/09 10:45:26;;;;;;;11.93;3.88;;;23.60;62.90;;;;;;5018252;28;20022;-72
2022/07/09 10:47:57;;;;;;;7.82;3.55;;;23.60;63.20;;;;;;5015013;28;20048;-72
2022/07/09 10:50:23;;;;;;;8.30;3.50;;;23.60;63.00;;;;;;5004427;28;20036;-72
2022/07/09 10:52:49;;;;;;;8.43;3.88;;;23.60;63.00;;;;;;5006248;28;20624;-72
2022/07/09 10:55:26;;;;;;;9.77;3.55;;;23.60;63.20;;;;;;5001273;28;20145;-73
2022/07/09 10:57:52;;;;;;;14.38;4.20;;;23.70;63.20;;;;;;5003862;28;20526;-72
2022/07/09 11:00:19;;;;;;;8.35;3.78;;;23.70;63.00;;;;;;5005109;28;20444;-73
2022/07/09 11:02:52;;;;;;;8.68;4.10;;;23.70;63.20;;;;;;5004157;28;20026;-73
2022/07/09 11:05:17;;;;;;;12.05;5.20;;;23.80;63.00;;;;;;5018371;28;20048;-72
2022/07/09 11:07:43;;;;;;;31.35;19.08;;;23.80;63.20;;;;;;5003754;28;20026;-73
2022/07/09 11:10:12;;;;;;;23.83;11.15;;;23.80;63.50;;;;;;5000624;28;20037;-72
2022/07/09 11:12:38;;;;;;;48.63;26.88;;;23.80;63.50;;;;;;5017907;28;20037;-72
2022/07/09 11:15:04;;;;;;;33.65;16.80;;;23.80;63.50;;;;;;4986262;28;20422;-74
2022/07/09 11:17:30;;;;;;;34.03;17.48;;;23.80;63.80;;;;;;5002133;28;20049;-74
2022/07/09 11:19:55;;;;;;;37.17;19.65;;;23.90;63.50;;;;;;5005787;28;20032;-73
2022/07/09 11:22:21;;;;;;;30.83;17.50;;;23.90;63.50;;;;;;5005302;28;20033;-73
2022/07/09 11:24:47;;;;;;;28.92;14.15;;;23.90;63.40;;;;;;5005515;28;20026;-73
2022/07/09 11:27:13;;;;;;;24.63;13.43;;;24.00;63.40;;;;;;5005848;28;20046;-73
2022/07/09 11:29:39;;;;;;;24.70;12.50;;;24.00;63.20;;;;;;5007301;28;20097;-73
2022/07/09 11:32:04;;;;;;;23.83;12.25;;;24.00;63.10;;;;;;5006435;28;20209;-73
2022/07/09 11:34:30;;;;;;;25.45;12.35;;;24.00;63.10;;;;;;5004172;28;20105;-73
2022/07/09 11:36:57;;;;;;;24.65;12.63;;;24.00;63.10;;;;;;5004392;28;20038;-73
2022/07/09 11:39:23;;;;;;;21.50;11.50;;;24.10;63.10;;;;;;5005594;28;20084;-73
2022/07/09 11:41:49;;;;;;;21.40;10.93;;;24.10;63.10;;;;;;5005609;28;20042;-73
2022/07/09 11:44:24;;;;;;;20.88;11.52;;;24.10;63.10;;;;;;5007011;28;20675;-73
2022/07/09 11:47:05;;;;;;;21.92;11.38;;;24.10;62.90;;;;;;5003476;28;20065;-73
2022/07/09 11:49:38;;;;;;;22.90;11.05;;;24.10;62.90;;;;;;5008233;28;20080;-73
2022/07/09 11:52:05;;;;;;;21.58;11.40;;;24.20;62.90;;;;;;5006456;28;20026;-73
2022/07/09 11:54:31;;;;;;;19.70;11.07;;;24.10;62.90;;;;;;5004436;28;20447;-73
2022/07/09 11:56:57;;;;;;;21.15;10.52;;;24.20;62.90;;;;;;5003939;28;20080;-73
2022/07/09 11:59:31;;;;;;;19.70;10.30;;;24.20;62.80;;;;;;5002864;28;20124;-73
2022/07/09 12:01:58;;;;;;;18.88;9.38;;;24.20;62.70;;;;;;5004114;28;20050;-73
2022/07/09 12:04:23;;;;;;;18.35;9.50;;;24.20;62.70;;;;;;5001269;28;20026;-73
2022/07/09 12:06:50;;;;;;;17.02;9.75;;;24.30;62.80;;;;;;5005957;28;20152;-73
2022/07/09 12:09:16;;;;;;;18.17;9.02;;;24.30;62.70;;;;;;5002801;28;20437;-73
2022/07/09 12:11:42;;;;;;;20.60;9.32;;;24.30;62.60;;;;;;5002027;28;20068;-73
2022/07/09 12:14:07;;;;;;;21.25;9.70;;;24.30;62.50;;;;;;5003995;28;20054;-73
2022/07/09 12:16:33;;;;;;;18.00;9.07;;;24.30;62.50;;;;;;5006137;28;20487;-73
2022/07/09 12:18:59;;;;;;;16.35;8.60;;;24.30;62.40;;;;;;5004122;28;20054;-73
2022/07/09 12:21:24;;;;;;;16.45;8.98;;;24.30;62.50;;;;;;5002004;28;20494;-73
2022/07/09 12:23:50;;;;;;;15.70;9.02;;;24.30;62.40;;;;;;5004441;28;20557;-73
2022/07/09 12:26:15;;;;;;;17.45;8.70;;;24.40;62.40;;;;;;5005716;28;20049;-73
2022/07/09 12:28:41;;;;;;;18.00;8.75;;;24.40;62.30;;;;;;5004376;28;20034;-73
2022/07/09 12:31:07;;;;;;;16.42;8.27;;;24.40;62.30;;;;;;5006012;28;20022;-73
2022/07/09 12:33:32;;;;;;;16.92;8.43;;;24.40;62.30;;;;;;5004086;28;20022;-73
2022/07/09 12:35:58;;;;;;;16.70;8.57;;;24.40;62.20;;;;;;5006772;28;20065;-73
2022/07/09 12:38:24;;;;;;;14.05;8.10;;;24.40;62.20;;;;;;5006662;28;20412;-73
2022/07/09 12:40:49;;;;;;;16.55;8.35;;;24.50;62.20;;;;;;5003027;28;20038;-73